createdAt,value
2018-01-11T00:00:01.829Z,99662.34
2018-01-11T00:02:29.304Z,99666.60
2018-01-11T00:04:56.768Z,99672.07
2018-01-11T00:07:24.246Z,99677.71
2018-01-11T00:09:51.704Z,99665.04
2018-01-11T00:12:19.191Z,99662.92
2018-01-11T00:14:46.647Z,99661.36
2018-01-11T00:17:14.104Z,99660.06
2018-01-11T00:19:41.574Z,99655.25
2018-01-11T00:22:09.036Z,99660.70
2018-01-11T00:24:36.511Z,99664.95
2018-01-11T00:27:03.974Z,99663.33
2018-01-11T00:29:31.446Z,99662.81
2018-01-11T00:31:58.907Z,99663.45
2018-01-11T00:34:26.390Z,99669.30
2018-01-11T00:36:53.851Z,99669.20
2018-01-11T00:39:21.358Z,99671.22
2018-01-11T00:41:48.843Z,99664.64
2018-01-11T00:44:16.302Z,99668.00
2018-01-11T00:46:43.778Z,99664.39
2018-01-11T00:49:11.236Z,99662.93
2018-01-11T00:51:38.713Z,99669.20
2018-01-11T00:54:06.171Z,99669.53
2018-01-11T00:56:33.652Z,99666.97
2018-01-11T00:59:01.117Z,99675.22
2018-01-11T01:01:28.610Z,99679.69
2018-01-11T01:03:56.067Z,99680.83
2018-01-11T01:06:23.523Z,99679.59
2018-01-11T01:08:50.995Z,99674.45
2018-01-11T01:11:18.448Z,99683.92
2018-01-11T01:13:45.932Z,99688.95
2018-01-11T01:16:13.418Z,99689.37
2018-01-11T01:18:40.890Z,99691.98
2018-01-11T01:21:08.346Z,99694.46
2018-01-11T01:23:35.856Z,99693.10
2018-01-11T01:26:03.316Z,99694.09
2018-01-11T01:28:30.775Z,99697.52
2018-01-11T01:30:58.247Z,99697.79
2018-01-11T01:33:25.722Z,99699.63
2018-01-11T01:35:53.202Z,99697.88
2018-01-11T01:38:20.660Z,99696.52
2018-01-11T01:43:09.434Z,99706.13
2018-01-11T01:45:36.911Z,99706.84
2018-01-11T01:48:04.370Z,99701.20
2018-01-11T01:50:31.863Z,99703.06
2018-01-11T01:52:59.323Z,99703.48
2018-01-11T01:55:26.804Z,99709.42
2018-01-11T01:57:54.280Z,99705.48
2018-01-11T02:00:21.747Z,99710.05
2018-01-11T02:02:49.223Z,99709.53
2018-01-11T02:05:16.679Z,99710.58
2018-01-11T02:07:44.163Z,99706.38
2018-01-11T02:10:11.630Z,99712.02
2018-01-11T02:12:39.124Z,99715.70
2018-01-11T02:15:06.587Z,99714.55
2018-01-11T02:17:34.053Z,99717.24
2018-01-11T02:20:01.536Z,99718.28
2018-01-11T02:22:28.999Z,99722.13
2018-01-11T02:24:56.771Z,99721.14
2018-01-11T02:27:24.237Z,99714.89
2018-01-11T02:29:51.711Z,99719.80
2018-01-11T02:32:19.163Z,99719.27
2018-01-11T02:34:46.643Z,99721.57
2018-01-11T02:37:14.111Z,99726.81
2018-01-11T02:39:41.636Z,99729.27
2018-01-11T02:42:09.091Z,99723.50
2018-01-11T02:44:36.543Z,99726.27
2018-01-11T02:47:04.035Z,99732.06
2018-01-11T02:49:31.494Z,99732.01
2018-01-11T02:51:58.971Z,99731.23
2018-01-11T02:54:26.437Z,99736.63
2018-01-11T02:56:53.906Z,99742.59
2018-01-11T02:59:21.365Z,99741.45
2018-01-11T03:01:48.848Z,99744.83
2018-01-11T03:04:16.298Z,99748.76
2018-01-11T03:06:43.783Z,99748.23
2018-01-11T03:09:11.276Z,99755.14
2018-01-11T03:11:38.738Z,99752.45
2018-01-11T03:14:06.224Z,99752.39
2018-01-11T03:16:33.684Z,99749.31
2018-01-11T03:19:01.175Z,99747.08
2018-01-11T03:21:28.646Z,99750.19
2018-01-11T03:23:56.511Z,99750.46
2018-01-11T03:26:23.970Z,99751.59
2018-01-11T03:28:51.430Z,99753.95
2018-01-11T03:31:18.908Z,99749.61
2018-01-11T03:33:46.362Z,99752.09
2018-01-11T03:36:13.843Z,99751.02
2018-01-11T03:38:41.295Z,99753.19
2018-01-11T03:41:08.787Z,99755.20
2018-01-11T03:43:36.255Z,99747.47
2018-01-11T03:46:03.755Z,99759.04
2018-01-11T03:48:31.215Z,99756.34
2018-01-11T03:50:58.672Z,99755.08
2018-01-11T03:53:26.151Z,99751.62
2018-01-11T03:55:53.609Z,99753.84
2018-01-11T03:58:21.083Z,99754.48
2018-01-11T04:00:48.551Z,99760.11
2018-01-11T04:03:16.088Z,99757.70
2018-01-11T04:05:43.549Z,99765.70
2018-01-11T04:08:11.023Z,99761.38
2018-01-11T04:10:38.487Z,99764.63
2018-01-11T04:13:05.953Z,99762.73
2018-01-11T04:18:07.191Z,99760.25
2018-01-11T04:20:34.679Z,99774.15
2018-01-11T04:23:02.139Z,99768.53
2018-01-11T04:28:03.287Z,99775.13
2018-01-11T04:30:30.775Z,99780.94
2018-01-11T04:32:58.236Z,99780.11
2018-01-11T04:35:25.690Z,99783.22
2018-01-11T04:37:53.166Z,99786.09
2018-01-11T04:40:20.627Z,99784.52
2018-01-11T04:42:48.103Z,99785.22
2018-01-11T04:45:15.564Z,99787.78
2018-01-11T04:47:43.043Z,99793.09
2018-01-11T04:50:10.499Z,99790.89
2018-01-11T04:52:37.987Z,99794.13
2018-01-11T04:55:05.447Z,99797.78
2018-01-11T04:57:33.067Z,99797.66
2018-01-11T05:00:00.594Z,99803.47
2018-01-11T05:02:28.055Z,99804.98
2018-01-11T05:04:55.531Z,99810.48
2018-01-11T05:07:22.999Z,99812.49
2018-01-11T05:09:50.479Z,99811.42
2018-01-11T05:12:17.960Z,99816.98
2018-01-11T05:14:45.447Z,99819.16
2018-01-11T05:17:12.904Z,99822.61
2018-01-11T05:19:40.363Z,99827.48
2018-01-11T05:22:07.835Z,99823.38
2018-01-11T05:24:35.292Z,99827.84
2018-01-11T05:27:02.775Z,99830.03
2018-01-11T05:29:30.237Z,99828.83
2018-01-11T05:31:57.711Z,99825.77
2018-01-11T05:34:25.179Z,99832.09
2018-01-11T05:36:52.658Z,99836.33
2018-01-11T05:39:20.147Z,99837.89
2018-01-11T05:41:47.643Z,99842.13
2018-01-11T05:44:15.099Z,99843.94
2018-01-11T05:46:42.564Z,99846.92
2018-01-11T05:49:10.034Z,99848.69
2018-01-11T05:51:37.490Z,99850.28
2018-01-11T05:54:04.995Z,99849.04
2018-01-11T05:56:32.459Z,99852.01
2018-01-11T05:58:59.930Z,99851.48
2018-01-11T06:01:27.383Z,99852.72
2018-01-11T06:03:54.850Z,99865.73
2018-01-11T06:06:22.323Z,99862.32
2018-01-11T06:08:49.824Z,99868.49
2018-01-11T06:11:17.289Z,99866.84
2018-01-11T06:13:44.748Z,99864.91
2018-01-11T06:16:12.228Z,99869.78
2018-01-11T06:18:39.690Z,99874.50
2018-01-11T06:21:07.175Z,99876.62
2018-01-11T06:23:34.643Z,99884.88
2018-01-11T06:26:02.119Z,99883.69
2018-01-11T06:28:29.576Z,99881.13
2018-01-11T06:30:57.067Z,99888.88
2018-01-11T06:33:24.523Z,99886.23
2018-01-11T06:35:52.020Z,99910.34
2018-01-11T06:38:19.487Z,99908.66
2018-01-11T06:40:46.979Z,99916.29
2018-01-11T06:43:14.450Z,99918.50
2018-01-11T06:45:41.915Z,99911.64
2018-01-11T06:48:09.394Z,99921.23
2018-01-11T06:50:36.865Z,99923.87
2018-01-11T06:53:04.343Z,99922.72
2018-01-11T06:55:31.798Z,99921.72
2018-01-11T06:57:59.276Z,99930.73
2018-01-11T07:00:26.736Z,99932.26
2018-01-11T07:02:54.263Z,99936.89
2018-01-11T07:05:21.727Z,99935.05
2018-01-11T07:07:49.186Z,99934.61
2018-01-11T07:10:16.666Z,99942.20
2018-01-11T07:12:44.118Z,99936.30
2018-01-11T07:15:11.600Z,99934.95
2018-01-11T07:17:39.068Z,99938.72
2018-01-11T07:20:06.550Z,99944.94
2018-01-11T07:22:34.011Z,99949.50
2018-01-11T07:25:01.495Z,99958.34
2018-01-11T07:27:28.964Z,99955.02
2018-01-11T07:29:56.444Z,99960.13
2018-01-11T07:32:23.910Z,99956.67
2018-01-11T07:34:51.383Z,99960.99
2018-01-11T07:37:18.839Z,99964.93
2018-01-11T07:39:46.319Z,99966.86
2018-01-11T07:42:13.771Z,99967.04
2018-01-11T07:44:41.247Z,99977.81
2018-01-11T07:47:08.702Z,99982.75
2018-01-11T07:49:36.187Z,99981.23
2018-01-11T07:52:03.973Z,99990.11
2018-01-11T07:54:31.455Z,99990.22
2018-01-11T07:56:58.918Z,99993.63
2018-01-11T07:59:26.403Z,100006.06
2018-01-11T08:01:53.859Z,99999.50
2018-01-11T08:04:21.350Z,99999.27
2018-01-11T08:06:48.811Z,100008.06
2018-01-11T08:09:16.331Z,100014.52
2018-01-11T08:11:43.780Z,100020.09
2018-01-11T08:14:11.274Z,100023.65
2018-01-11T08:16:38.737Z,100027.76
2018-01-11T08:19:06.208Z,100029.00
2018-01-11T08:21:33.703Z,100035.98
2018-01-11T08:24:01.172Z,100033.87
2018-01-11T08:26:28.659Z,100041.23
2018-01-11T08:28:56.121Z,100049.21
2018-01-11T08:31:23.616Z,100059.75
2018-01-11T08:33:51.084Z,100062.34
2018-01-11T08:36:18.558Z,100062.00
2018-01-11T08:38:46.023Z,100064.07
2018-01-11T08:41:13.509Z,100061.09
2018-01-11T08:43:40.975Z,100067.20
2018-01-11T08:46:08.465Z,100071.08
2018-01-11T08:48:35.936Z,100070.38
2018-01-11T08:51:03.411Z,100071.97
2018-01-11T08:53:31.599Z,100074.84
2018-01-11T08:55:59.078Z,100084.94
2018-01-11T08:58:27.470Z,100087.55
2018-01-11T09:00:55.830Z,100079.19
2018-01-11T09:03:23.290Z,100090.14
2018-01-11T09:05:50.770Z,100093.67
2018-01-11T09:08:18.236Z,100094.27
2018-01-11T09:10:45.732Z,100102.72
2018-01-11T09:13:13.187Z,100112.38
2018-01-11T09:15:40.672Z,100115.97
2018-01-11T09:18:08.135Z,100114.47
2018-01-11T09:20:35.618Z,100122.90
2018-01-11T09:23:03.107Z,100123.66
2018-01-11T09:25:30.596Z,100124.78
2018-01-11T09:27:58.054Z,100126.88
2018-01-11T09:30:25.535Z,100131.58
2018-01-11T09:32:52.999Z,100133.52
2018-01-11T09:35:20.482Z,100137.40
2018-01-11T09:37:47.951Z,100139.09
2018-01-11T09:40:15.411Z,100143.09
2018-01-11T09:42:42.895Z,100148.02
2018-01-11T09:45:10.406Z,100144.84
2018-01-11T09:47:37.850Z,100147.53
2018-01-11T09:50:05.316Z,100143.54
2018-01-11T09:52:32.795Z,100142.63
2018-01-11T09:55:00.267Z,100139.62
2018-01-11T09:57:27.750Z,100146.11
2018-01-11T09:59:55.206Z,100150.80
2018-01-11T10:02:22.691Z,100151.84
2018-01-11T10:04:50.163Z,100155.45
2018-01-11T10:07:17.665Z,100158.73
2018-01-11T10:09:45.126Z,100160.93
2018-01-11T10:12:12.607Z,100155.16
2018-01-11T10:14:40.067Z,100161.17
2018-01-11T10:17:07.565Z,100156.97
2018-01-11T10:19:35.048Z,100168.42
2018-01-11T10:22:02.535Z,100162.32
2018-01-11T10:24:30.009Z,100163.75
2018-01-11T10:26:57.507Z,100168.69
2018-01-11T10:29:24.976Z,100164.66
2018-01-11T10:31:52.463Z,100173.88
2018-01-11T10:34:19.922Z,100170.30
2018-01-11T10:36:47.414Z,100176.22
2018-01-11T10:39:14.895Z,100173.59
2018-01-11T10:41:42.477Z,100171.00
2018-01-11T10:44:10.020Z,100182.19
2018-01-11T10:46:37.588Z,100177.52
2018-01-11T10:49:05.128Z,100176.89
2018-01-11T10:51:32.644Z,100180.77
2018-01-11T10:54:00.103Z,100177.76
2018-01-11T10:56:27.590Z,100180.92
2018-01-11T10:58:55.050Z,100177.27
2018-01-11T11:01:28.029Z,100178.23
2018-01-11T11:03:55.486Z,100175.33
2018-01-11T11:06:22.948Z,100179.26
2018-01-11T11:08:50.423Z,100170.25
2018-01-11T11:11:17.884Z,100172.67
2018-01-11T11:13:45.363Z,100175.00
2018-01-11T11:16:12.835Z,100180.39
2018-01-11T11:18:40.324Z,100182.78
2018-01-11T11:21:07.788Z,100183.05
2018-01-11T11:23:36.061Z,100187.50
2018-01-11T11:26:03.575Z,100181.31
2018-01-11T11:28:31.101Z,100183.65
2018-01-11T11:30:58.611Z,100181.97
2018-01-11T11:33:26.128Z,100180.91
2018-01-11T11:35:53.635Z,100181.49
2018-01-11T11:38:21.167Z,100178.67
2018-01-11T11:40:48.712Z,100181.16
2018-01-11T11:43:16.284Z,100185.61
2018-01-11T11:45:43.832Z,100187.43
2018-01-11T11:48:11.365Z,100187.19
2018-01-11T11:50:38.852Z,100186.41
2018-01-11T11:53:06.356Z,100184.33
2018-01-11T11:55:33.879Z,100183.80
2018-01-11T11:58:01.385Z,100179.92
2018-01-11T12:00:28.900Z,100184.09
2018-01-11T12:02:56.412Z,100183.19
2018-01-11T12:05:25.900Z,100188.46
2018-01-11T12:07:53.431Z,100183.27
2018-01-11T12:10:20.971Z,100187.62
2018-01-11T12:12:48.459Z,100186.27
2018-01-11T12:15:15.954Z,100186.39
2018-01-11T12:17:43.527Z,100188.73
2018-01-11T12:20:11.060Z,100188.72
2018-01-11T12:22:38.604Z,100190.63
2018-01-11T12:25:06.104Z,100188.41
2018-01-11T12:27:33.693Z,100191.81
2018-01-11T12:30:01.203Z,100189.77
2018-01-11T12:32:28.708Z,100189.09
2018-01-11T12:34:56.288Z,100182.68
2018-01-11T12:37:23.817Z,100184.92
2018-01-11T12:39:51.379Z,100197.06
2018-01-11T12:42:18.880Z,100197.48
2018-01-11T12:44:46.404Z,100196.28
2018-01-11T12:47:13.903Z,100196.53
2018-01-11T12:49:41.423Z,100194.97
2018-01-11T12:52:08.883Z,100194.08
2018-01-11T12:54:37.351Z,100200.55
2018-01-11T12:57:04.849Z,100206.17
2018-01-11T12:59:32.363Z,100213.20
2018-01-11T13:01:59.846Z,100206.80
2018-01-11T13:04:27.359Z,100208.99
2018-01-11T13:06:54.838Z,100218.54
2018-01-11T13:09:22.315Z,100213.53
2018-01-11T13:11:49.779Z,100216.56
2018-01-11T13:14:17.262Z,100221.61
2018-01-11T13:16:44.720Z,100222.98
2018-01-11T13:19:12.251Z,100218.09
2018-01-11T13:21:39.687Z,100227.37
2018-01-11T13:24:07.895Z,100231.62
2018-01-11T13:26:35.411Z,100240.80
2018-01-11T13:29:03.276Z,100248.61
2018-01-11T13:31:30.835Z,100250.27
2018-01-11T13:33:58.376Z,100251.68
2018-01-11T13:36:25.948Z,100252.98
2018-01-11T13:38:53.511Z,100257.09
2018-01-11T13:41:21.092Z,100259.23
2018-01-11T13:43:48.672Z,100254.34
2018-01-11T13:46:16.135Z,100260.00
2018-01-11T13:48:43.709Z,100265.20
2018-01-11T13:51:11.213Z,100268.02
2018-01-11T13:53:38.762Z,100269.38
2018-01-11T13:56:06.266Z,100275.00
2018-01-11T13:58:33.756Z,100274.47
2018-01-11T14:01:01.280Z,100277.95
2018-01-11T14:03:28.817Z,100279.48
2018-01-11T14:05:56.295Z,100279.10
2018-01-11T14:08:23.767Z,100285.14
2018-01-11T14:10:51.399Z,100289.78
2018-01-11T14:13:18.888Z,100293.52
2018-01-11T14:15:46.448Z,100293.59
2018-01-11T14:18:13.924Z,100296.03
2018-01-11T14:20:41.443Z,100299.97
2018-01-11T14:23:08.963Z,100304.39
2018-01-11T14:25:36.495Z,100314.95
2018-01-11T14:28:03.993Z,100308.26
2018-01-11T14:30:31.475Z,100314.70
2018-01-11T14:32:58.940Z,100319.86
2018-01-11T14:35:26.419Z,100331.21
2018-01-11T14:37:53.880Z,100328.45
2018-01-11T14:40:21.370Z,100329.56
2018-01-11T14:42:48.845Z,100333.23
2018-01-11T14:45:16.363Z,100331.05
2018-01-11T14:47:43.898Z,100335.86
2018-01-11T14:50:11.432Z,100337.48
2018-01-11T14:52:38.920Z,100338.17
2018-01-11T14:55:06.436Z,100336.80
2018-01-11T14:57:33.953Z,100339.97
2018-01-11T15:00:01.480Z,100344.69
2018-01-11T15:02:28.991Z,100344.83
2018-01-11T15:04:56.530Z,100351.56
2018-01-11T15:07:24.078Z,100351.30
2018-01-11T15:09:51.657Z,100359.59
2018-01-11T15:12:19.180Z,100357.03
2018-01-11T15:14:46.643Z,100367.92
2018-01-11T15:17:14.122Z,100359.70
2018-01-11T15:19:41.581Z,100359.15
2018-01-11T15:22:09.075Z,100366.09
2018-01-11T15:24:36.542Z,100366.95
2018-01-11T15:27:04.028Z,100380.71
2018-01-11T15:29:31.490Z,100380.72
2018-01-11T15:31:58.979Z,100383.41
2018-01-11T15:34:26.441Z,100387.25
2018-01-11T15:36:53.943Z,100391.14
2018-01-11T15:39:22.143Z,100393.86
2018-01-11T15:41:49.632Z,100399.89
2018-01-11T15:44:17.975Z,100403.80
2018-01-11T15:46:45.458Z,100398.85
2018-01-11T15:49:12.914Z,100411.68
2018-01-11T15:51:40.395Z,100411.02
2018-01-11T15:54:07.860Z,100411.50
2018-01-11T15:56:35.360Z,100407.95
2018-01-11T15:59:02.822Z,100409.48
2018-01-11T16:01:30.307Z,100412.23
2018-01-11T16:03:57.771Z,100418.64
2018-01-11T16:06:25.253Z,100418.08
2018-01-11T16:08:52.719Z,100420.19
2018-01-11T16:11:20.199Z,100421.25
2018-01-11T16:13:48.479Z,100433.42
2018-01-11T16:16:16.827Z,100433.95
2018-01-11T16:18:44.289Z,100441.98
2018-01-11T16:21:11.776Z,100451.10
2018-01-11T16:23:39.241Z,100451.48
2018-01-11T16:26:06.725Z,100451.20
2018-01-11T16:28:34.200Z,100455.08
2018-01-11T16:31:01.720Z,100460.80
2018-01-11T16:33:29.187Z,100458.02
2018-01-11T16:35:56.659Z,100457.50
2018-01-11T16:38:24.134Z,100466.89
2018-01-11T16:40:51.595Z,100466.79
2018-01-11T16:43:19.080Z,100467.52
2018-01-11T16:45:46.562Z,100460.59
2018-01-11T16:48:14.047Z,100461.89
2018-01-11T16:50:41.511Z,100458.20
2018-01-11T16:53:08.999Z,100464.06
2018-01-11T16:55:36.460Z,100469.08
2018-01-11T16:58:03.947Z,100462.59
2018-01-11T17:00:31.411Z,100470.81
2018-01-11T17:02:58.895Z,100478.22
2018-01-11T17:05:26.350Z,100475.80
2018-01-11T17:07:53.831Z,100475.13
2018-01-11T17:10:21.295Z,100482.00
2018-01-11T17:12:48.787Z,100485.72
2018-01-11T17:15:16.254Z,100497.20
2018-01-11T17:17:43.743Z,100499.30
2018-01-11T17:20:11.209Z,100502.33
2018-01-11T17:22:38.688Z,100502.22
2018-01-11T17:25:06.149Z,100498.77
2018-01-11T17:27:33.832Z,100509.39
2018-01-11T17:30:01.297Z,100512.89
2018-01-11T17:32:28.783Z,100520.78
2018-01-11T17:34:56.256Z,100522.00
2018-01-11T17:37:23.748Z,100521.41
2018-01-11T17:39:51.214Z,100525.59
2018-01-11T17:42:18.700Z,100530.99
2018-01-11T17:44:46.164Z,100533.38
2018-01-11T17:47:13.639Z,100530.45
2018-01-11T17:49:41.103Z,100537.02
2018-01-11T17:52:08.588Z,100532.34
2018-01-11T17:54:36.069Z,100526.27
2018-01-11T17:57:03.531Z,100533.71
2018-01-11T17:59:31.031Z,100533.69
2018-01-11T18:01:58.498Z,100530.18
2018-01-11T18:04:25.987Z,100537.66
2018-01-11T18:06:53.442Z,100538.76
2018-01-11T18:09:20.939Z,100540.55
2018-01-11T18:11:48.396Z,100542.14
2018-01-11T18:14:15.887Z,100540.12
2018-01-11T18:16:43.351Z,100542.06
2018-01-11T18:19:10.831Z,100551.00
2018-01-11T18:21:38.286Z,100550.60
2018-01-11T18:24:05.833Z,100550.74
2018-01-11T18:26:33.298Z,100557.59
2018-01-11T18:29:00.781Z,100555.72
2018-01-11T18:31:28.241Z,100558.78
2018-01-11T18:33:55.724Z,100564.27
2018-01-11T18:36:23.188Z,100560.66
2018-01-11T18:38:50.675Z,100563.92
2018-01-11T18:41:18.147Z,100563.52
2018-01-11T18:43:45.623Z,100569.98
2018-01-11T18:46:13.091Z,100567.06
2018-01-11T18:48:40.583Z,100568.55
2018-01-11T18:51:08.046Z,100576.19
2018-01-11T18:53:35.526Z,100575.48
2018-01-11T18:56:02.991Z,100579.95
2018-01-11T18:58:30.474Z,100578.28
2018-01-11T19:00:57.939Z,100579.11
2018-01-11T19:03:25.428Z,100584.28
2018-01-11T19:05:52.888Z,100586.36
2018-01-11T19:08:20.373Z,100588.91
2018-01-11T19:10:47.835Z,100597.85
2018-01-11T19:13:15.341Z,100597.68
2018-01-11T19:15:42.814Z,100599.34
2018-01-11T19:18:10.280Z,100601.03
2018-01-11T19:20:37.763Z,100601.97
2018-01-11T19:23:05.223Z,100604.23
2018-01-11T19:25:32.716Z,100607.36
2018-01-11T19:28:00.193Z,100611.02
2018-01-11T19:30:27.675Z,100607.22
2018-01-11T19:32:55.138Z,100612.87
2018-01-11T19:35:22.908Z,100615.88
2018-01-11T19:37:50.375Z,100623.15
2018-01-11T19:40:17.863Z,100627.20
2018-01-11T19:42:45.324Z,100620.63
2018-01-11T19:45:12.807Z,100629.48
2018-01-11T19:47:40.272Z,100627.61
2018-01-11T19:50:07.766Z,100632.88
2018-01-11T19:52:35.236Z,100637.27
2018-01-11T19:55:02.718Z,100642.06
2018-01-11T19:57:30.196Z,100642.47
2018-01-11T19:59:57.682Z,100649.38
2018-01-11T20:02:25.147Z,100652.50
2018-01-11T20:04:52.631Z,100654.00
2018-01-11T20:07:20.096Z,100654.00
2018-01-11T20:09:47.579Z,100657.31
2018-01-11T20:12:15.044Z,100655.78
2018-01-11T20:14:42.522Z,100661.83
2018-01-11T20:17:09.987Z,100657.64
2018-01-11T20:19:37.488Z,100660.80
2018-01-11T20:22:04.955Z,100667.41
2018-01-11T20:24:32.423Z,100661.80
2018-01-11T20:26:59.903Z,100665.91
2018-01-11T20:29:27.367Z,100667.16
2018-01-11T20:31:54.860Z,100667.86
2018-01-11T20:34:22.323Z,100668.71
2018-01-11T20:36:49.803Z,100675.55
2018-01-11T20:39:17.271Z,100679.27
2018-01-11T20:41:44.750Z,100686.01
2018-01-11T20:44:12.207Z,100689.73
2018-01-11T20:46:39.699Z,100688.10
2018-01-11T20:49:07.164Z,100686.02
2018-01-11T20:51:34.686Z,100695.19
2018-01-11T20:54:02.144Z,100698.53
2018-01-11T20:56:29.602Z,100689.15
2018-01-11T20:58:57.091Z,100699.11
2018-01-11T21:01:24.555Z,100697.95
2018-01-11T21:03:52.039Z,100702.73
2018-01-11T21:06:19.499Z,100699.06
2018-01-11T21:08:46.987Z,100698.32
2018-01-11T21:11:14.442Z,100701.66
2018-01-11T21:13:41.938Z,100704.60
2018-01-11T21:16:09.405Z,100702.22
2018-01-11T21:18:36.887Z,100700.79
2018-01-11T21:21:04.398Z,100709.08
2018-01-11T21:23:31.922Z,100704.41
2018-01-11T21:25:59.383Z,100707.02
2018-01-11T21:28:26.878Z,100713.99
2018-01-11T21:30:55.107Z,100713.59
2018-01-11T21:33:22.676Z,100711.11
2018-01-11T21:35:50.198Z,100714.97
2018-01-11T21:38:17.654Z,100714.38
2018-01-11T21:40:45.139Z,100719.35
2018-01-11T21:43:12.599Z,100723.30
2018-01-11T21:45:40.078Z,100725.38
2018-01-11T21:48:07.539Z,100731.08
2018-01-11T21:50:35.038Z,100731.63
2018-01-11T21:53:02.502Z,100735.67
2018-01-11T21:55:30.201Z,100735.39
2018-01-11T21:57:57.689Z,100745.30
2018-01-11T22:00:25.161Z,100750.59
2018-01-11T22:02:52.653Z,100747.48
2018-01-11T22:05:20.114Z,100751.76
2018-01-11T22:07:47.598Z,100749.38
2018-01-11T22:10:15.060Z,100749.80
2018-01-11T22:12:42.535Z,100755.01
2018-01-11T22:15:09.990Z,100752.31
2018-01-11T22:17:37.473Z,100760.11
2018-01-11T22:20:04.931Z,100761.95
2018-01-11T22:22:32.436Z,100768.69
2018-01-11T22:24:59.898Z,100767.66
2018-01-11T22:27:27.358Z,100773.76
2018-01-11T22:29:54.843Z,100772.31
2018-01-11T22:32:22.307Z,100774.50
2018-01-11T22:34:49.788Z,100777.19
2018-01-11T22:37:17.259Z,100781.98
2018-01-11T22:39:44.746Z,100779.37
2018-01-11T22:42:12.208Z,100787.56
2018-01-11T22:44:39.711Z,100781.95
2018-01-11T22:47:07.198Z,100777.61
2018-01-11T22:49:34.661Z,100782.04
2018-01-11T22:52:02.143Z,100784.22
2018-01-11T22:54:29.606Z,100780.92
2018-01-11T22:56:57.087Z,100782.48
2018-01-11T22:59:24.555Z,100785.80
2018-01-11T23:01:52.034Z,100787.34
2018-01-11T23:04:19.492Z,100788.20
2018-01-11T23:06:46.983Z,100786.63
2018-01-11T23:09:14.455Z,100791.06
2018-01-11T23:11:42.802Z,100788.08
2018-01-11T23:14:10.259Z,100786.22
2018-01-11T23:16:37.784Z,100790.36
2018-01-11T23:19:05.317Z,100791.73
2018-01-11T23:21:32.775Z,100784.22
2018-01-11T23:24:00.259Z,100788.49
2018-01-11T23:26:27.718Z,100785.58
2018-01-11T23:28:55.202Z,100790.06
2018-01-11T23:31:22.659Z,100795.43
2018-01-11T23:33:50.138Z,100793.86
2018-01-11T23:36:17.607Z,100791.29
2018-01-11T23:38:45.103Z,100794.37
2018-01-11T23:41:12.559Z,100801.20
2018-01-11T23:43:40.019Z,100802.05
2018-01-11T23:46:07.499Z,100799.16
2018-01-11T23:48:34.955Z,100801.11
2018-01-11T23:51:02.448Z,100808.17
2018-01-11T23:53:29.907Z,100805.16
2018-01-11T23:55:57.398Z,100809.95
2018-01-11T23:58:24.857Z,100816.40
